Time,TemperatureF,DewpointF,PressureIn,WindDirection,WindDirectionDegrees,WindSpeedMPH,WindSpeedGustMPH,Humidity,HourlyPrecipIn,Conditions,Clouds,dailyrainin,SoftwareType,DateUTC
2013-01-23 00:03:00,52.0,33.4,29.52,West,270,0.0,0.0,49,0.00,,,0.00,meteohub,2013-01-23 08:03:00,
2013-01-23 00:08:00,52.3,33.8,29.52,West,270,0.0,0.0,49,0.00,,,0.00,meteohub,2013-01-23 08:08:00,
2013-01-23 00:13:00,52.5,34.0,29.52,West,270,0.0,0.0,49,0.00,,,0.00,meteohub,2013-01-23 08:13:00,
2013-01-23 00:18:00,52.7,33.6,29.52,NW,315,0.0,0.0,48,0.00,,,0.00,meteohub,2013-01-23 08:18:00,
2013-01-23 00:23:00,53.1,32.9,29.52,West,270,0.0,0.0,46,0.00,,,0.00,meteohub,2013-01-23 08:23:00,
2013-01-23 00:28:00,53.4,33.6,29.52,West,270,0.0,0.0,47,0.00,,,0.00,meteohub,2013-01-23 08:28:00,
2013-01-23 00:33:00,53.4,34.7,29.52,West,270,0.0,0.0,49,0.00,,,0.00,meteohub,2013-01-23 08:33:00,
2013-01-23 00:39:00,53.2,34.5,29.52,West,270,0.0,0.0,49,0.00,,,0.00,meteohub,2013-01-23 08:39:00,
2013-01-23 00:44:00,53.2,34.5,29.52,West,270,0.0,0.0,49,0.00,,,0.00,meteohub,2013-01-23 08:44:00,
2013-01-23 00:49:00,53.1,34.9,29.52,West,270,0.0,0.0,50,0.00,,,0.00,meteohub,2013-01-23 08:49:00,
2013-01-23 00:54:00,52.9,34.2,29.52,WSW,248,0.0,0.0,49,0.00,,,0.00,meteohub,2013-01-23 08:54:00,
2013-01-23 01:00:00,52.9,33.8,29.52,WSW,248,0.0,0.0,48,0.00,,,0.00,meteohub,2013-01-23 09:00:00,
2013-01-23 01:05:00,53.1,32.9,29.52,West,270,0.0,0.0,46,0.00,,,0.00,meteohub,2013-01-23 09:05:00,
2013-01-23 01:10:00,53.4,32.5,29.52,West,270,0.0,0.0,45,0.00,,,0.00,meteohub,2013-01-23 09:10:00,
2013-01-23 01:15:00,53.6,32.2,29.52,NE,45,0.0,0.0,44,0.00,,,0.00,meteohub,2013-01-23 09:15:00,
2013-01-23 01:21:00,54.0,31.5,29.51,West,270,0.0,0.0,42,0.00,,,0.00,meteohub,2013-01-23 09:21:00,
2013-01-23 01:26:00,54.1,31.5,29.51,NW,315,0.0,0.0,42,0.00,,,0.00,meteohub,2013-01-23 09:26:00,
2013-01-23 01:31:00,54.3,32.9,29.51,South,180,0.0,0.0,44,0.00,,,0.00,meteohub,2013-01-23 09:31:00,
2013-01-23 01:36:00,54.1,31.5,29.51,West,270,0.0,0.0,42,0.00,,,0.00,meteohub,2013-01-23 09:36:00,
2013-01-23 01:41:00,54.1,30.4,29.51,West,270,0.0,0.0,40,0.00,,,0.00,meteohub,2013-01-23 09:41:00,
2013-01-23 01:47:00,54.5,30.7,29.51,West,270,0.0,0.0,40,0.00,,,0.00,meteohub,2013-01-23 09:47:00,
2013-01-23 01:52:00,54.5,31.3,29.51,WNW,293,0.0,0.0,41,0.00,,,0.00,meteohub,2013-01-23 09:52:00,
2013-01-23 01:57:00,54.5,31.8,29.52,WNW,293,0.0,0.0,42,0.00,,,0.00,meteohub,2013-01-23 09:57:00,
2013-01-23 02:02:00,54.3,32.4,29.51,WNW,293,0.0,0.0,43,0.00,,,0.00,meteohub,2013-01-23 10:02:00,
2013-01-23 02:07:00,54.0,33.6,29.50,WNW,293,0.0,0.0,46,0.00,,,0.00,meteohub,2013-01-23 10:07:00,
2013-01-23 02:12:00,53.6,32.2,29.51,WNW,293,0.0,0.0,44,0.00,,,0.00,meteohub,2013-01-23 10:12:00,
2013-01-23 02:17:00,53.6,32.2,29.51,WNW,293,0.0,0.0,44,0.00,,,0.00,meteohub,2013-01-23 10:17:00,
2013-01-23 02:23:00,53.2,32.4,29.51,WNW,293,0.0,0.0,45,0.00,,,0.00,meteohub,2013-01-23 10:23:00,
2013-01-23 02:28:00,53.1,32.9,29.50,WNW,293,0.0,0.0,46,0.00,,,0.00,meteohub,2013-01-23 10:28:00,
2013-01-23 02:33:00,52.9,32.7,29.50,WNW,293,0.0,0.0,46,0.00,,,0.00,meteohub,2013-01-23 10:33:00,
2013-01-23 02:38:00,52.5,33.4,29.50,WSW,248,0.0,0.0,48,0.00,,,0.00,meteohub,2013-01-23 10:38:00,
2013-01-23 02:44:00,52.2,33.6,29.50,WSW,248,0.0,0.0,49,0.00,,,0.00,meteohub,2013-01-23 10:44:00,
2013-01-23 02:49:00,52.0,33.4,29.51,WSW,248,0.0,0.0,49,0.00,,,0.00,meteohub,2013-01-23 10:49:00,
2013-01-23 02:54:00,51.6,34.2,29.51,West,270,0.0,0.0,51,0.00,,,0.00,meteohub,2013-01-23 10:54:00,
2013-01-23 02:59:00,51.3,34.2,29.50,West,270,0.0,0.0,52,0.00,,,0.00,meteohub,2013-01-23 10:59:00,
2013-01-23 03:05:00,51.3,33.8,29.50,West,270,0.0,0.0,51,0.00,,,0.00,meteohub,2013-01-23 11:05:00,
2013-01-23 03:10:00,51.3,34.2,29.49,West,270,0.0,0.0,52,0.00,,,0.00,meteohub,2013-01-23 11:10:00,
2013-01-23 03:15:00,51.1,34.0,29.50,West,270,0.0,0.0,52,0.00,,,0.00,meteohub,2013-01-23 11:15:00,
2013-01-23 03:20:00,51.1,34.0,29.50,West,270,0.0,0.0,52,0.00,,,0.00,meteohub,2013-01-23 11:20:00,
2013-01-23 03:26:00,51.3,33.8,29.50,West,270,0.0,0.0,51,0.00,,,0.00,meteohub,2013-01-23 11:26:00,
2013-01-23 03:31:00,51.4,34.0,29.49,NW,315,0.0,0.0,51,0.00,,,0.00,meteohub,2013-01-23 11:31:00,
2013-01-23 03:37:00,51.8,33.3,29.50,NW,315,0.0,0.0,49,0.00,,,0.00,meteohub,2013-01-23 11:37:00,
2013-01-23 03:42:00,52.0,32.9,29.49,NW,315,0.0,0.0,48,0.00,,,0.00,meteohub,2013-01-23 11:42:00,
2013-01-23 03:47:00,52.2,33.1,29.49,West,270,0.0,0.0,48,0.00,,,0.00,meteohub,2013-01-23 11:47:00,
2013-01-23 03:52:00,52.3,32.7,29.49,West,270,0.0,0.0,47,0.00,,,0.00,meteohub,2013-01-23 11:52:00,
2013-01-23 03:57:00,52.5,33.4,29.49,West,270,0.0,0.0,48,0.00,,,0.00,meteohub,2013-01-23 11:57:00,
2013-01-23 04:02:00,52.5,34.0,29.49,West,270,0.0,0.0,49,0.00,,,0.00,meteohub,2013-01-23 12:02:00,
2013-01-23 04:07:00,52.3,33.8,29.49,West,270,0.0,0.0,49,0.00,,,0.00,meteohub,2013-01-23 12:07:00,
2013-01-23 04:12:00,52.3,32.7,29.49,West,270,0.0,0.0,47,0.00,,,0.00,meteohub,2013-01-23 12:12:00,
2013-01-23 04:17:00,52.7,32.5,29.49,West,270,0.0,0.0,46,0.00,,,0.00,meteohub,2013-01-23 12:17:00,
2013-01-23 04:22:00,52.9,32.7,29.48,West,270,0.0,0.0,46,0.00,,,0.00,meteohub,2013-01-23 12:22:00,
2013-01-23 04:28:00,52.9,33.8,29.49,West,270,0.0,0.0,48,0.00,,,0.00,meteohub,2013-01-23 12:28:00,
2013-01-23 04:33:00,52.7,34.2,29.48,West,270,0.0,0.0,49,0.00,,,0.00,meteohub,2013-01-23 12:33:00,
2013-01-23 04:38:00,52.7,34.5,29.48,West,270,0.0,0.0,50,0.00,,,0.00,meteohub,2013-01-23 12:38:00,
2013-01-23 04:44:00,52.5,34.0,29.48,West,270,0.0,0.0,49,0.00,,,0.00,meteohub,2013-01-23 12:44:00,
2013-01-23 04:49:00,52.3,33.8,29.48,West,270,0.0,0.0,49,0.00,,,0.00,meteohub,2013-01-23 12:49:00,
2013-01-23 04:54:00,52.0,34.3,29.46,West,270,0.0,0.0,51,0.00,,,0.00,meteohub,2013-01-23 12:54:00,
2013-01-23 05:00:00,51.8,33.8,29.46,West,270,0.0,0.0,50,0.00,,,0.00,meteohub,2013-01-23 13:00:00,
2013-01-23 05:05:00,51.6,34.2,29.47,West,270,0.0,0.0,51,0.00,,,0.00,meteohub,2013-01-23 13:05:00,
2013-01-23 05:10:00,51.6,34.2,29.47,West,270,0.0,0.0,51,0.00,,,0.00,meteohub,2013-01-23 13:10:00,
2013-01-23 05:15:00,51.6,34.2,29.47,West,270,0.0,0.0,51,0.00,,,0.00,meteohub,2013-01-23 13:15:00,
2013-01-23 05:20:00,51.6,34.2,29.46,West,270,0.0,0.0,51,0.00,,,0.00,meteohub,2013-01-23 13:20:00,
2013-01-23 05:25:00,51.4,34.3,29.46,West,270,0.0,0.0,52,0.00,,,0.00,meteohub,2013-01-23 13:25:00,
2013-01-23 05:30:00,51.3,34.7,29.47,West,270,0.0,0.0,53,0.00,,,0.00,meteohub,2013-01-23 13:30:00,
2013-01-23 05:35:00,51.1,34.5,29.47,West,270,0.0,0.0,53,0.00,,,0.00,meteohub,2013-01-23 13:35:00,
2013-01-23 05:41:00,50.9,34.3,29.47,West,270,0.0,0.0,53,0.00,,,0.00,meteohub,2013-01-23 13:41:00,
2013-01-23 05:46:00,50.9,34.3,29.48,West,270,0.0,0.0,53,0.00,,,0.00,meteohub,2013-01-23 13:46:00,
2013-01-23 05:51:00,50.7,34.2,29.48,West,270,0.0,0.0,53,0.00,,,0.00,meteohub,2013-01-23 13:51:00,
2013-01-23 05:56:00,50.7,34.2,29.48,West,270,0.0,0.0,53,0.00,,,0.00,meteohub,2013-01-23 13:56:00,
2013-01-23 06:01:00,50.7,33.8,29.48,West,270,0.0,0.0,52,0.00,,,0.00,meteohub,2013-01-23 14:01:00,
2013-01-23 06:06:00,50.7,33.8,29.48,West,270,0.0,0.0,52,0.00,,,0.00,meteohub,2013-01-23 14:06:00,
2013-01-23 06:11:00,51.6,33.6,29.49,West,270,0.0,0.0,50,0.00,,,0.00,meteohub,2013-01-23 14:11:00,
2013-01-23 06:16:00,52.0,33.4,29.49,West,270,0.0,0.0,49,0.00,,,0.00,meteohub,2013-01-23 14:16:00,
2013-01-23 06:21:00,52.2,33.6,29.49,West,270,0.0,0.0,49,0.00,,,0.00,meteohub,2013-01-23 14:21:00,
2013-01-23 06:26:00,52.3,33.3,29.49,West,270,0.0,0.0,48,0.00,,,0.00,meteohub,2013-01-23 14:26:00,
2013-01-23 06:31:00,52.5,34.0,29.49,West,270,0.0,0.0,49,0.00,,,0.00,meteohub,2013-01-23 14:31:00,
2013-01-23 06:36:00,52.5,33.4,29.49,West,270,0.0,0.0,48,0.00,,,0.00,meteohub,2013-01-23 14:36:00,
2013-01-23 06:41:00,52.7,33.6,29.49,West,270,0.0,0.0,48,0.00,,,0.00,meteohub,2013-01-23 14:41:00,
2013-01-23 06:46:00,52.7,33.1,29.50,West,270,0.0,0.0,47,0.00,,,0.00,meteohub,2013-01-23 14:46:00,
2013-01-23 06:51:00,52.9,34.2,29.50,West,270,0.0,0.0,49,0.00,,,0.00,meteohub,2013-01-23 14:51:00,
2013-01-23 06:57:00,52.5,34.0,29.50,West,270,0.0,0.0,49,0.00,,,0.00,meteohub,2013-01-23 14:57:00,
2013-01-23 07:02:00,52.2,34.2,29.50,West,270,0.0,0.0,50,0.00,,,0.00,meteohub,2013-01-23 15:02:00,
2013-01-23 07:07:00,52.2,33.6,29.51,West,270,0.0,0.0,49,0.00,,,0.00,meteohub,2013-01-23 15:07:00,
2013-01-23 07:12:00,52.2,32.5,29.51,West,270,0.0,0.0,47,0.00,,,0.00,meteohub,2013-01-23 15:12:00,
2013-01-23 07:17:00,52.3,32.7,29.51,West,270,0.0,0.0,47,0.00,,,0.00,meteohub,2013-01-23 15:17:00,
2013-01-23 07:22:00,52.5,32.9,29.51,West,270,0.0,0.0,47,0.00,,,0.00,meteohub,2013-01-23 15:22:00,
2013-01-23 07:27:00,52.7,33.1,29.50,West,270,0.0,0.0,47,0.00,,,0.00,meteohub,2013-01-23 15:27:00,
2013-01-23 07:32:00,52.9,32.7,29.50,West,270,0.0,0.0,46,0.00,,,0.00,meteohub,2013-01-23 15:32:00,
2013-01-23 07:37:00,53.1,33.4,29.50,West,270,0.0,0.0,47,0.00,,,0.00,meteohub,2013-01-23 15:37:00,
2013-01-23 07:42:00,53.2,33.1,29.51,West,270,0.0,0.0,46,0.00,,,0.00,meteohub,2013-01-23 15:42:00,
2013-01-23 07:47:00,53.4,32.5,29.51,West,270,0.0,0.0,45,0.00,,,0.00,meteohub,2013-01-23 15:47:00,
2013-01-23 07:52:00,53.6,32.2,29.52,West,270,0.0,0.0,44,0.00,,,0.00,meteohub,2013-01-23 15:52:00,
2013-01-23 07:57:00,53.6,32.7,29.52,West,270,0.0,0.0,45,0.00,,,0.00,meteohub,2013-01-23 15:57:00,
2013-01-23 08:02:00,53.6,32.2,29.52,West,270,0.0,0.0,44,0.00,,,0.00,meteohub,2013-01-23 16:02:00,
2013-01-23 08:07:00,53.6,32.2,29.53,West,270,0.0,0.0,44,0.00,,,0.00,meteohub,2013-01-23 16:07:00,
2013-01-23 08:12:00,53.8,32.9,29.53,West,270,0.0,0.0,45,0.00,,,0.00,meteohub,2013-01-23 16:12:00,
2013-01-23 08:17:00,53.8,33.4,29.53,West,270,0.0,0.0,46,0.00,,,0.00,meteohub,2013-01-23 16:17:00,
2013-01-23 08:22:00,54.0,33.6,29.53,West,270,0.0,0.0,46,0.00,,,0.00,meteohub,2013-01-23 16:22:00,
2013-01-23 08:27:00,54.0,34.2,29.52,West,270,0.0,0.0,47,0.00,,,0.00,meteohub,2013-01-23 16:27:00,
2013-01-23 08:32:00,54.0,35.2,29.52,West,270,0.0,0.0,49,0.00,,,0.00,meteohub,2013-01-23 16:32:00,
2013-01-23 08:37:00,53.8,35.1,29.52,West,270,0.0,0.0,49,0.00,,,0.00,meteohub,2013-01-23 16:37:00,
2013-01-23 08:42:00,53.8,35.1,29.52,West,270,0.0,0.0,49,0.00,,,0.00,meteohub,2013-01-23 16:42:00,
2013-01-23 08:47:00,53.8,34.5,29.51,West,270,0.0,0.0,48,0.00,,,0.00,meteohub,2013-01-23 16:47:00,
2013-01-23 08:52:00,54.1,34.3,29.51,West,270,0.0,0.0,47,0.00,,,0.00,meteohub,2013-01-23 16:52:00,
2013-01-23 08:57:00,54.5,35.8,29.51,West,270,0.0,0.0,49,0.00,,,0.00,meteohub,2013-01-23 16:57:00,
2013-01-23 09:02:00,54.5,36.3,29.51,West,270,0.0,0.0,50,0.00,,,0.00,meteohub,2013-01-23 17:02:00,
2013-01-23 09:07:00,54.5,53.6,29.53,East,90,0.0,0.0,97,0.00,,,0.00,meteohub,2013-01-23 17:07:00,
2013-01-23 09:12:00,54.5,36.7,29.51,West,270,0.0,0.0,51,0.00,,,0.00,meteohub,2013-01-23 17:12:00,
2013-01-23 09:17:00,54.5,37.8,29.52,West,270,0.0,0.0,53,0.00,,,0.00,meteohub,2013-01-23 17:17:00,
2013-01-23 09:22:00,54.3,37.6,29.51,West,270,0.0,0.0,53,0.00,,,0.00,meteohub,2013-01-23 17:22:00,
2013-01-23 09:27:00,54.3,37.9,29.51,West,270,0.0,0.0,54,0.00,,,0.00,meteohub,2013-01-23 17:27:00,
2013-01-23 09:32:00,54.3,37.9,29.50,West,270,0.0,0.0,54,0.00,,,0.00,meteohub,2013-01-23 17:32:00,
2013-01-23 09:37:00,54.3,37.6,29.50,West,270,0.0,0.0,53,0.00,,,0.00,meteohub,2013-01-23 17:37:00,
2013-01-23 09:42:00,54.5,35.8,29.51,NW,315,0.0,0.0,49,0.00,,,0.00,meteohub,2013-01-23 17:42:00,
2013-01-23 09:47:00,54.9,37.0,29.52,WSW,248,0.0,0.0,51,0.00,,,0.00,meteohub,2013-01-23 17:47:00,
2013-01-23 09:52:00,54.9,39.4,29.52,WSW,248,0.0,0.0,56,0.00,,,0.00,meteohub,2013-01-23 17:52:00,
2013-01-23 09:57:00,54.9,39.4,29.52,NW,315,0.0,0.0,56,0.00,,,0.00,meteohub,2013-01-23 17:57:00,
2013-01-23 10:02:00,54.7,38.8,29.52,NW,315,0.0,0.0,55,0.00,,,0.00,meteohub,2013-01-23 18:02:00,
2013-01-23 10:07:00,54.5,38.7,29.53,NW,315,0.0,0.0,55,0.00,,,0.00,meteohub,2013-01-23 18:07:00,
2013-01-23 10:12:00,54.9,37.6,29.53,West,270,0.0,0.0,52,0.00,,,0.00,meteohub,2013-01-23 18:12:00,
2013-01-23 10:17:00,55.0,37.8,29.53,West,270,0.0,0.0,52,0.00,,,0.00,meteohub,2013-01-23 18:17:00,
2013-01-23 10:22:00,55.4,38.5,29.54,West,270,0.0,0.0,53,0.00,,,0.00,meteohub,2013-01-23 18:22:00,
2013-01-23 10:27:00,55.6,39.2,29.53,West,270,0.0,0.0,54,0.00,,,0.00,meteohub,2013-01-23 18:27:00,
2013-01-23 10:32:00,55.8,40.8,29.52,West,270,0.0,0.0,57,0.00,,,0.00,meteohub,2013-01-23 18:32:00,
2013-01-23 10:37:00,55.9,42.3,29.53,West,270,0.0,0.0,60,0.00,,,0.00,meteohub,2013-01-23 18:37:00,
2013-01-23 10:42:00,55.9,41.9,29.53,West,270,0.0,0.0,59,0.00,,,0.00,meteohub,2013-01-23 18:42:00,
2013-01-23 10:47:00,56.1,41.9,29.52,West,270,0.0,0.0,59,0.00,,,0.00,meteohub,2013-01-23 18:47:00,
2013-01-23 10:52:00,56.3,43.0,29.52,West,270,0.0,0.0,61,0.00,,,0.00,meteohub,2013-01-23 18:52:00,
2013-01-23 10:57:00,56.5,41.9,29.52,West,270,0.0,0.0,58,0.00,,,0.00,meteohub,2013-01-23 18:57:00,
2013-01-23 11:02:00,56.7,41.5,29.53,West,270,0.0,0.0,57,0.00,,,0.00,meteohub,2013-01-23 19:02:00,
2013-01-23 11:07:00,56.7,41.2,29.52,West,270,0.0,0.0,56,0.00,,,0.00,meteohub,2013-01-23 19:07:00,
2013-01-23 11:12:00,56.8,40.8,29.52,West,270,0.0,0.0,55,0.00,,,0.00,meteohub,2013-01-23 19:12:00,
2013-01-23 11:17:00,56.8,40.8,29.52,West,270,0.0,0.0,55,0.00,,,0.00,meteohub,2013-01-23 19:17:00,
2013-01-23 11:22:00,56.8,40.5,29.51,West,270,0.0,0.0,54,0.00,,,0.00,meteohub,2013-01-23 19:22:00,
2013-01-23 11:27:00,56.8,40.8,29.52,West,270,0.0,0.0,55,0.00,,,0.00,meteohub,2013-01-23 19:27:00,
2013-01-23 11:32:00,56.8,40.5,29.51,NW,315,0.0,0.0,54,0.00,,,0.00,meteohub,2013-01-23 19:32:00,
2013-01-23 11:37:00,56.8,40.5,29.52,West,270,0.0,0.0,54,0.00,,,0.00,meteohub,2013-01-23 19:37:00,
2013-01-23 11:42:00,56.7,40.3,29.52,West,270,0.0,0.0,54,0.00,,,0.00,meteohub,2013-01-23 19:42:00,
2013-01-23 11:47:00,56.7,40.6,29.51,West,270,0.0,0.0,55,0.00,,,0.00,meteohub,2013-01-23 19:47:00,
2013-01-23 11:52:00,56.5,40.5,29.51,West,270,0.0,0.0,55,0.00,,,0.00,meteohub,2013-01-23 19:52:00,
2013-01-23 11:57:00,56.3,41.2,29.50,West,270,0.0,0.0,57,0.00,,,0.00,meteohub,2013-01-23 19:57:00,
2013-01-23 12:02:00,55.9,41.9,29.50,West,270,0.0,0.0,59,0.00,,,0.00,meteohub,2013-01-23 20:02:00,
2013-01-23 12:07:00,72.7,59.4,29.47,SE,135,0.0,0.0,63,0.00,,,0.00,meteohub,2013-01-23 20:07:00,
2013-01-23 12:12:00,55.2,42.8,29.49,West,270,0.0,0.0,63,0.00,,,0.00,meteohub,2013-01-23 20:12:00,
2013-01-23 12:17:00,54.7,43.5,29.50,West,270,0.0,0.0,66,0.00,,,0.00,meteohub,2013-01-23 20:17:00,
2013-01-23 12:22:00,54.7,43.9,29.50,West,270,0.0,0.0,67,0.00,,,0.00,meteohub,2013-01-23 20:22:00,
2013-01-23 12:27:00,53.8,43.9,29.49,West,270,0.0,0.0,69,0.00,,,0.00,meteohub,2013-01-23 20:27:00,
2013-01-23 12:32:00,53.4,43.9,29.49,NW,315,0.0,0.0,70,0.00,,,0.00,meteohub,2013-01-23 20:32:00,
2013-01-23 12:37:00,53.1,43.5,29.49,West,270,0.0,0.0,70,0.00,,,0.00,meteohub,2013-01-23 20:37:00,
2013-01-23 12:42:00,52.7,43.2,29.48,West,270,0.0,0.0,70,0.00,,,0.00,meteohub,2013-01-23 20:42:00,
2013-01-23 12:47:00,52.5,43.0,29.47,WSW,248,0.0,0.0,70,0.00,,,0.00,meteohub,2013-01-23 20:47:00,
2013-01-23 12:52:00,52.5,43.7,29.48,NW,315,0.0,0.0,72,0.00,,,0.00,meteohub,2013-01-23 20:52:00,
2013-01-23 12:57:00,52.3,43.5,29.48,SW,225,0.0,0.0,72,0.00,,,0.00,meteohub,2013-01-23 20:57:00,
2013-01-23 13:02:00,52.3,43.9,29.47,NW,315,0.0,0.0,73,0.00,,,0.00,meteohub,2013-01-23 21:02:00,
2013-01-23 13:07:00,52.5,44.4,29.47,West,270,0.0,0.0,74,0.00,,,0.00,meteohub,2013-01-23 21:07:00,
2013-01-23 13:12:00,52.5,44.8,29.47,SW,225,0.0,0.0,75,0.00,,,0.00,meteohub,2013-01-23 21:12:00,
2013-01-23 13:17:00,52.5,45.1,29.47,NNW,338,0.0,0.0,76,0.00,,,0.00,meteohub,2013-01-23 21:17:00,
2013-01-23 13:22:00,52.7,45.3,29.47,SW,225,0.0,0.0,76,0.00,,,0.00,meteohub,2013-01-23 21:22:00,
2013-01-23 13:27:00,52.9,45.5,29.46,West,270,0.0,0.0,76,0.00,,,0.00,meteohub,2013-01-23 21:27:00,
2013-01-23 13:32:00,53.1,45.7,29.47,West,270,0.0,0.0,76,0.00,,,0.00,meteohub,2013-01-23 21:32:00,
2013-01-23 13:37:00,53.2,45.9,29.47,West,270,0.0,0.0,76,0.00,,,0.00,meteohub,2013-01-23 21:37:00,
2013-01-23 13:42:00,53.6,45.9,29.47,SW,225,0.0,0.0,75,0.00,,,0.00,meteohub,2013-01-23 21:42:00,
2013-01-23 13:47:00,53.8,46.4,29.47,NW,315,0.0,0.0,76,0.00,,,0.00,meteohub,2013-01-23 21:47:00,
2013-01-23 13:52:00,54.1,46.8,29.47,NNW,338,0.0,0.0,76,0.00,,,0.00,meteohub,2013-01-23 21:52:00,
2013-01-23 13:57:00,54.5,46.8,29.47,North,0,0.0,0.0,75,0.00,,,0.00,meteohub,2013-01-23 21:57:00,
2013-01-23 14:02:00,54.9,47.1,29.46,SW,225,0.0,0.0,75,0.00,,,0.00,meteohub,2013-01-23 22:02:00,
2013-01-23 14:07:00,55.0,46.9,29.46,SW,225,0.0,0.0,74,0.00,,,0.00,meteohub,2013-01-23 22:07:00,
2013-01-23 14:12:00,55.2,47.1,29.46,South,180,0.0,0.0,74,0.00,,,0.00,meteohub,2013-01-23 22:12:00,
2013-01-23 14:17:00,55.6,46.8,29.46,NW,315,0.0,0.0,72,0.00,,,0.00,meteohub,2013-01-23 22:17:00,
2013-01-23 14:22:00,55.6,46.8,29.45,NW,315,0.0,0.0,72,0.00,,,0.00,meteohub,2013-01-23 22:22:00,
2013-01-23 14:27:00,56.5,47.1,29.47,SW,225,0.0,0.0,71,0.00,,,0.00,meteohub,2013-01-23 22:27:00,
2013-01-23 14:32:00,56.8,47.5,29.46,SW,225,0.0,0.0,71,0.00,,,0.00,meteohub,2013-01-23 22:32:00,
2013-01-23 14:37:00,57.2,47.8,29.45,SW,225,0.0,0.0,71,0.00,,,0.00,meteohub,2013-01-23 22:37:00,
2013-01-23 14:42:00,57.2,47.8,29.46,East,90,0.0,0.0,71,0.00,,,0.00,meteohub,2013-01-23 22:42:00,
2013-01-23 14:47:00,57.2,47.8,29.46,WNW,293,0.0,0.0,71,0.00,,,0.00,meteohub,2013-01-23 22:47:00,
2013-01-23 14:52:00,57.0,47.7,29.46,NW,315,0.0,0.0,71,0.00,,,0.00,meteohub,2013-01-23 22:52:00,
2013-01-23 14:57:00,56.8,47.8,29.46,SW,225,0.0,0.0,72,0.00,,,0.00,meteohub,2013-01-23 22:57:00,
2013-01-23 15:02:00,56.7,47.7,29.46,SSW,203,0.0,0.0,72,0.00,,,0.00,meteohub,2013-01-23 23:02:00,
2013-01-23 15:07:00,73.9,56.8,29.41,East,90,0.0,0.0,55,0.00,,,0.00,meteohub,2013-01-23 23:07:00,
2013-01-23 15:12:00,56.5,47.5,29.46,SW,225,0.0,0.0,72,0.00,,,0.00,meteohub,2013-01-23 23:12:00,
2013-01-23 15:17:00,56.5,47.5,29.47,SW,225,0.0,0.0,72,0.00,,,0.00,meteohub,2013-01-23 23:17:00,
2013-01-23 15:22:00,56.3,47.8,29.47,NW,315,0.0,0.0,73,0.00,,,0.00,meteohub,2013-01-23 23:22:00,
2013-01-23 15:27:00,56.3,47.5,29.47,West,270,0.0,0.0,72,0.00,,,0.00,meteohub,2013-01-23 23:27:00,
2013-01-23 15:32:00,56.3,47.5,29.46,West,270,0.0,0.0,72,0.00,,,0.00,meteohub,2013-01-23 23:32:00,
2013-01-23 15:37:00,56.5,48.0,29.47,West,270,0.0,0.0,73,0.00,,,0.00,meteohub,2013-01-23 23:37:00,
2013-01-23 15:42:00,56.5,47.5,29.47,West,270,0.0,0.0,72,0.00,,,0.00,meteohub,2013-01-23 23:42:00,
2013-01-23 15:47:00,56.7,48.0,29.47,West,270,0.0,0.0,73,0.00,,,0.00,meteohub,2013-01-23 23:47:00,
2013-01-23 15:52:00,56.5,48.0,29.47,West,270,0.0,0.0,73,0.00,,,0.00,meteohub,2013-01-23 23:52:00,
2013-01-23 15:57:00,56.3,47.5,29.47,West,270,0.0,0.0,72,0.00,,,0.00,meteohub,2013-01-23 23:57:00,
2013-01-23 16:02:00,56.1,47.3,29.47,West,270,0.0,0.0,72,0.00,,,0.00,meteohub,2013-01-24 00:02:00,
2013-01-23 16:07:00,56.1,46.8,29.47,West,270,0.0,0.0,71,0.00,,,0.00,meteohub,2013-01-24 00:07:00,
2013-01-23 16:12:00,55.9,46.8,29.47,NW,315,0.0,0.0,71,0.00,,,0.00,meteohub,2013-01-24 00:12:00,
2013-01-23 16:17:00,55.9,46.8,29.47,West,270,0.0,0.0,71,0.00,,,0.00,meteohub,2013-01-24 00:17:00,
2013-01-23 16:22:00,55.9,46.8,29.47,West,270,0.0,0.0,71,0.00,,,0.00,meteohub,2013-01-24 00:22:00,
2013-01-23 16:27:00,55.6,46.4,29.47,West,270,0.0,0.0,71,0.00,,,0.00,meteohub,2013-01-24 00:27:00,
2013-01-23 16:32:00,55.6,46.8,29.47,South,180,0.0,0.0,72,0.00,,,0.00,meteohub,2013-01-24 00:32:00,
2013-01-23 16:37:00,55.4,46.6,29.47,NW,315,0.0,0.0,72,0.00,,,0.00,meteohub,2013-01-24 00:37:00,
2013-01-23 16:42:00,55.2,46.4,29.48,SW,225,0.0,0.0,72,0.00,,,0.00,meteohub,2013-01-24 00:42:00,
2013-01-23 16:47:00,55.0,46.6,29.48,SW,225,0.0,0.0,73,0.00,,,0.00,meteohub,2013-01-24 00:47:00,
2013-01-23 16:52:00,54.9,46.8,29.48,SW,225,0.0,0.0,74,0.00,,,0.00,meteohub,2013-01-24 00:52:00,
2013-01-23 16:57:00,54.9,47.1,29.48,West,270,0.0,0.0,75,0.00,,,0.00,meteohub,2013-01-24 00:57:00,
2013-01-23 17:02:00,54.9,47.1,29.49,West,270,0.0,0.0,75,0.00,,,0.00,meteohub,2013-01-24 01:02:00,
2013-01-23 17:07:00,54.9,47.1,29.48,South,180,0.0,0.0,75,0.00,,,0.00,meteohub,2013-01-24 01:07:00,
2013-01-23 17:12:00,54.7,47.3,29.48,North,0,0.0,0.0,76,0.00,,,0.00,meteohub,2013-01-24 01:12:00,
2013-01-23 17:17:00,54.5,47.5,29.48,North,0,0.0,0.0,77,0.00,,,0.00,meteohub,2013-01-24 01:17:00,
2013-01-23 17:22:00,54.5,47.8,29.48,North,0,0.0,0.0,78,0.00,,,0.00,meteohub,2013-01-24 01:22:00,
2013-01-23 17:27:00,54.3,47.7,29.48,SW,225,0.0,0.0,78,0.00,,,0.00,meteohub,2013-01-24 01:27:00,
2013-01-23 17:32:00,54.1,47.5,29.49,North,0,0.0,0.0,78,0.00,,,0.00,meteohub,2013-01-24 01:32:00,
2013-01-23 17:37:00,54.1,47.8,29.48,NW,315,0.0,0.0,79,0.00,,,0.00,meteohub,2013-01-24 01:37:00,
2013-01-23 17:42:00,54.0,47.7,29.48,North,0,0.0,0.0,79,0.00,,,0.00,meteohub,2013-01-24 01:42:00,
2013-01-23 17:47:00,54.0,47.7,29.48,NW,315,0.0,0.0,79,0.00,,,0.00,meteohub,2013-01-24 01:47:00,
2013-01-23 17:52:00,53.8,47.8,29.49,South,180,0.0,0.0,80,0.00,,,0.00,meteohub,2013-01-24 01:52:00,
2013-01-23 17:57:00,53.8,47.8,29.50,East,90,0.0,0.0,80,0.00,,,0.00,meteohub,2013-01-24 01:57:00,
2013-01-23 18:02:00,53.8,47.8,29.51,West,270,0.0,0.0,80,0.00,,,0.00,meteohub,2013-01-24 02:02:00,
2013-01-23 18:07:00,53.8,47.8,29.51,West,270,0.0,0.0,80,0.00,,,0.00,meteohub,2013-01-24 02:07:00,
2013-01-23 18:12:00,53.6,47.8,29.51,SW,225,0.0,0.0,81,0.00,,,0.00,meteohub,2013-01-24 02:12:00,
2013-01-23 18:17:00,53.4,48.0,29.50,SW,225,0.0,0.0,82,0.00,,,0.00,meteohub,2013-01-24 02:17:00,
2013-01-23 18:22:00,53.4,48.0,29.51,West,270,0.0,0.0,82,0.00,,,0.00,meteohub,2013-01-24 02:22:00,
2013-01-23 18:27:00,53.4,48.0,29.50,NNW,338,0.0,0.0,82,0.00,,,0.00,meteohub,2013-01-24 02:27:00,
2013-01-23 18:32:00,53.4,48.0,29.51,WNW,293,0.0,0.0,82,0.00,,,0.00,meteohub,2013-01-24 02:32:00,
2013-01-23 18:37:00,53.4,48.0,29.51,West,270,0.0,0.0,82,0.00,,,0.00,meteohub,2013-01-24 02:37:00,
2013-01-23 18:42:00,53.4,48.4,29.51,West,270,0.0,0.0,83,0.00,,,0.00,meteohub,2013-01-24 02:42:00,
2013-01-23 18:47:00,53.2,48.2,29.50,West,270,0.0,0.0,83,0.00,,,0.00,meteohub,2013-01-24 02:47:00,
2013-01-23 18:52:00,53.1,48.0,29.50,West,270,0.0,0.0,83,0.00,,,0.00,meteohub,2013-01-24 02:52:00,
2013-01-23 18:57:00,53.1,48.0,29.50,West,270,0.0,0.0,83,0.00,,,0.00,meteohub,2013-01-24 02:57:00,
2013-01-23 19:02:00,52.9,47.8,29.50,West,270,0.0,0.0,83,0.00,,,0.00,meteohub,2013-01-24 03:02:00,
2013-01-23 19:07:00,52.9,47.8,29.50,West,270,0.0,0.0,83,0.00,,,0.00,meteohub,2013-01-24 03:07:00,
2013-01-23 19:12:00,52.7,47.7,29.50,West,270,0.0,0.0,83,0.00,,,0.00,meteohub,2013-01-24 03:12:00,
2013-01-23 19:17:00,52.7,48.0,29.50,West,270,0.0,0.0,84,0.00,,,0.00,meteohub,2013-01-24 03:17:00,
2013-01-23 19:22:00,52.7,48.0,29.49,West,270,0.0,0.0,84,0.00,,,0.00,meteohub,2013-01-24 03:22:00,
2013-01-23 19:27:00,52.5,48.2,29.49,West,270,0.0,0.0,85,0.00,,,0.00,meteohub,2013-01-24 03:27:00,
2013-01-23 19:32:00,52.3,48.0,29.48,West,270,0.0,0.0,85,0.00,,,0.00,meteohub,2013-01-24 03:32:00,
2013-01-23 19:37:00,52.2,48.0,29.49,West,270,0.0,0.0,86,0.00,,,0.00,meteohub,2013-01-24 03:37:00,
2013-01-23 19:43:00,52.0,47.8,29.48,West,270,0.0,0.0,86,0.00,,,0.00,meteohub,2013-01-24 03:43:00,
2013-01-23 19:48:00,52.0,48.2,29.48,West,270,0.0,0.0,87,0.00,,,0.00,meteohub,2013-01-24 03:48:00,
2013-01-23 19:53:00,51.8,48.0,29.48,East,90,0.0,0.0,87,0.00,,,0.00,meteohub,2013-01-24 03:53:00,
2013-01-23 19:58:00,51.8,48.4,29.48,West,270,0.0,0.0,88,0.00,,,0.00,meteohub,2013-01-24 03:58:00,
2013-01-23 20:03:00,51.8,48.4,29.49,West,270,0.0,0.0,88,0.00,,,0.00,meteohub,2013-01-24 04:03:00,
2013-01-23 20:09:00,51.6,48.7,29.49,West,270,0.0,0.0,90,0.00,,,0.00,meteohub,2013-01-24 04:09:00,
2013-01-23 20:14:00,51.6,48.7,29.49,West,270,0.0,0.0,90,0.00,,,0.00,meteohub,2013-01-24 04:14:00,
2013-01-23 20:19:00,51.6,48.7,29.49,West,270,0.0,0.0,90,0.00,,,0.00,meteohub,2013-01-24 04:19:00,
2013-01-23 20:24:00,51.6,49.1,29.48,West,270,0.0,0.0,91,0.00,,,0.00,meteohub,2013-01-24 04:24:00,
2013-01-23 20:30:00,51.4,48.9,29.48,ENE,68,0.0,0.0,91,0.00,,,0.00,meteohub,2013-01-24 04:30:00,
2013-01-23 20:35:00,51.4,48.9,29.48,West,270,0.0,0.0,91,0.00,,,0.00,meteohub,2013-01-24 04:35:00,
2013-01-23 20:40:00,51.4,48.9,29.48,NE,45,0.0,0.0,91,0.00,,,0.00,meteohub,2013-01-24 04:40:00,
2013-01-23 20:45:00,51.3,49.1,29.49,NE,45,0.0,0.0,92,0.00,,,0.00,meteohub,2013-01-24 04:45:00,
2013-01-23 20:50:00,51.3,49.1,29.49,NE,45,0.0,0.0,92,0.00,,,0.00,meteohub,2013-01-24 04:50:00,
2013-01-23 20:56:00,51.3,49.1,29.49,NE,45,0.0,0.0,92,0.00,,,0.00,meteohub,2013-01-24 04:56:00,
2013-01-23 21:00:00,51.1,48.9,29.49,NE,45,0.0,0.0,92,0.00,,,0.00,meteohub,2013-01-24 05:00:00,
2013-01-23 21:01:00,51.1,48.9,29.49,West,270,0.0,0.0,92,0.00,,,0.00,meteohub,2013-01-24 05:01:00,
2013-01-23 21:02:00,51.1,48.9,29.49,West,270,0.0,0.0,92,0.00,,,0.00,meteohub,2013-01-24 05:02:00,
2013-01-23 21:03:00,51.1,48.9,29.49,West,270,0.0,0.0,92,0.00,,,0.00,meteohub,2013-01-24 05:03:00,
2013-01-23 21:08:00,51.1,48.9,29.50,West,270,1.0,0.0,92,0.00,,,0.00,meteohub,2013-01-24 05:08:00,
2013-01-23 21:13:00,51.1,48.9,29.49,West,270,0.0,1.0,92,0.00,,,0.00,meteohub,2013-01-24 05:13:00,
2013-01-23 21:19:00,51.1,48.9,29.50,West,270,0.0,1.0,92,0.00,,,0.00,meteohub,2013-01-24 05:19:00,
2013-01-23 21:24:00,50.9,48.7,29.50,West,270,0.0,1.0,92,0.00,,,0.00,meteohub,2013-01-24 05:24:00,
2013-01-23 21:29:00,50.9,48.9,29.50,West,270,0.0,0.0,93,0.00,,,0.00,meteohub,2013-01-24 05:29:00,
2013-01-23 21:34:00,50.9,48.9,29.50,West,270,0.0,0.0,93,0.00,,,0.00,meteohub,2013-01-24 05:34:00,
2013-01-23 21:39:00,50.9,48.9,29.49,West,270,0.0,0.0,93,0.00,,,0.00,meteohub,2013-01-24 05:39:00,
2013-01-23 21:44:00,50.9,48.9,29.49,NW,315,0.0,0.0,93,0.00,,,0.00,meteohub,2013-01-24 05:44:00,
2013-01-23 21:49:00,50.9,48.9,29.49,West,270,0.0,0.0,93,0.00,,,0.00,meteohub,2013-01-24 05:49:00,
2013-01-23 21:54:00,50.9,48.9,29.50,NW,315,0.0,0.0,93,0.00,,,0.00,meteohub,2013-01-24 05:54:00,
2013-01-23 22:00:00,50.9,48.9,29.50,SW,225,0.0,0.0,93,0.00,,,0.00,meteohub,2013-01-24 06:00:00,
2013-01-23 22:05:00,50.9,48.9,29.50,SW,225,0.0,0.0,93,0.00,,,0.00,meteohub,2013-01-24 06:05:00,
2013-01-23 22:10:00,50.9,49.3,29.50,SW,225,0.0,0.0,94,0.00,,,0.00,meteohub,2013-01-24 06:10:00,
2013-01-23 22:15:00,50.7,49.1,29.50,SW,225,0.0,0.0,94,0.00,,,0.00,meteohub,2013-01-24 06:15:00,
2013-01-23 22:20:00,50.7,49.1,29.50,SW,225,0.0,0.0,94,0.00,,,0.00,meteohub,2013-01-24 06:20:00,
2013-01-23 22:25:00,50.7,49.1,29.50,SW,225,0.0,1.0,94,0.00,,,0.00,meteohub,2013-01-24 06:25:00,
2013-01-23 22:30:00,50.5,48.9,29.50,SW,225,0.0,1.0,94,0.00,,,0.00,meteohub,2013-01-24 06:30:00,
2013-01-23 22:35:00,50.5,48.9,29.50,SW,225,0.0,1.0,94,0.00,,,0.00,meteohub,2013-01-24 06:35:00,
2013-01-23 22:41:00,50.5,48.9,29.49,NW,315,0.0,1.0,94,0.00,,,0.00,meteohub,2013-01-24 06:41:00,
2013-01-23 22:46:00,50.5,48.9,29.49,NW,315,0.0,1.0,94,0.00,,,0.00,meteohub,2013-01-24 06:46:00,
2013-01-23 22:51:00,50.5,48.9,29.49,South,180,0.0,1.0,94,0.00,,,0.00,meteohub,2013-01-24 06:51:00,
2013-01-23 22:56:00,50.5,48.9,29.49,North,0,0.0,1.0,94,0.00,,,0.00,meteohub,2013-01-24 06:56:00,
2013-01-23 23:01:00,50.5,48.9,29.49,South,180,0.0,1.0,94,0.00,,,0.00,meteohub,2013-01-24 07:01:00,
2013-01-23 23:06:00,50.5,48.9,29.48,SW,225,0.0,1.0,94,0.00,,,0.00,meteohub,2013-01-24 07:06:00,
2013-01-23 23:11:00,50.4,48.7,29.49,WSW,248,0.0,1.0,94,0.00,,,0.00,meteohub,2013-01-24 07:11:00,
2013-01-23 23:17:00,50.4,48.7,29.48,NE,45,0.0,1.0,94,0.00,,,0.00,meteohub,2013-01-24 07:17:00,
2013-01-23 23:22:00,50.4,48.9,29.48,SW,225,0.0,0.0,95,0.00,,,0.00,meteohub,2013-01-24 07:22:00,
2013-01-23 23:27:00,50.4,48.9,29.49,NE,45,0.0,1.0,95,0.00,,,0.00,meteohub,2013-01-24 07:27:00,
2013-01-23 23:32:00,50.4,48.9,29.49,West,270,0.0,1.0,95,0.00,,,0.00,meteohub,2013-01-24 07:32:00,
2013-01-23 23:37:00,50.4,48.9,29.49,NW,315,0.0,1.0,95,0.00,,,0.00,meteohub,2013-01-24 07:37:00,
2013-01-23 23:42:00,50.4,48.9,29.48,SE,135,0.0,1.0,95,0.00,,,0.00,meteohub,2013-01-24 07:42:00,
2013-01-23 23:47:00,50.4,48.9,29.48,West,270,0.0,1.0,95,0.00,,,0.00,meteohub,2013-01-24 07:47:00,
2013-01-23 23:52:00,50.5,49.1,29.48,North,0,0.0,1.0,95,0.00,,,0.00,meteohub,2013-01-24 07:52:00,
2013-01-23 23:57:00,50.5,49.1,29.48,SW,225,1.0,2.0,95,0.00,,,0.00,meteohub,2013-01-24 07:57:00,